createdAt,value
2017-04-22T00:00:14.696Z,90.80
2017-04-22T00:01:13.966Z,90.80
2017-04-22T00:02:13.485Z,90.80
2017-04-22T00:03:12.778Z,90.80
2017-04-22T00:04:13.467Z,91.00
2017-04-22T00:05:13.153Z,91.10
2017-04-22T00:06:13.681Z,90.80
2017-04-22T00:07:13.707Z,91.10
2017-04-22T00:08:13.300Z,91.20
2017-04-22T00:09:12.551Z,91.30
2017-04-22T00:10:11.812Z,91.00
2017-04-22T00:11:11.072Z,90.80
2017-04-22T00:12:11.085Z,90.80
2017-04-22T00:13:10.742Z,90.60
2017-04-22T00:14:10.231Z,90.90
2017-04-22T00:15:09.509Z,90.90
2017-04-22T00:16:09.340Z,90.80
2017-04-22T00:17:08.611Z,90.80
2017-04-22T00:18:07.887Z,90.90
2017-04-22T00:19:07.184Z,90.80
2017-04-22T00:20:06.788Z,90.70
2017-04-22T00:21:06.107Z,90.60
2017-04-22T00:22:06.488Z,90.80
2017-04-22T00:23:05.759Z,90.90
2017-04-22T00:24:05.240Z,90.80
2017-04-22T00:25:04.863Z,90.80
2017-04-22T00:26:04.331Z,90.80
2017-04-22T00:27:03.645Z,90.90
2017-04-22T00:28:02.907Z,91.00
2017-04-22T00:29:02.168Z,91.40
2017-04-22T00:30:01.447Z,90.90
2017-04-22T00:31:00.735Z,90.80
2017-04-22T00:32:00.321Z,90.60
2017-04-22T00:32:59.592Z,90.60
2017-04-22T00:33:58.855Z,90.50
2017-04-22T00:34:58.108Z,90.80
2017-04-22T00:35:57.376Z,90.80
2017-04-22T00:36:56.661Z,90.60
2017-04-22T00:37:55.935Z,90.60
2017-04-22T00:38:55.195Z,90.60
2017-04-22T00:39:55.435Z,90.70
2017-04-22T00:40:55.052Z,90.80
2017-04-22T00:41:54.724Z,90.80
2017-04-22T00:42:54.352Z,90.70
2017-04-22T00:43:53.929Z,90.40
2017-04-22T00:44:53.378Z,90.60
2017-04-22T00:45:52.679Z,90.60
2017-04-22T00:46:51.911Z,90.40
2017-04-22T00:47:51.150Z,90.50
2017-04-22T00:48:51.162Z,90.60
2017-04-22T00:49:51.484Z,90.70
2017-04-22T00:50:51.796Z,90.60
2017-04-22T00:51:51.363Z,90.70
2017-04-22T00:52:50.936Z,90.80
2017-04-22T00:53:50.571Z,90.70
2017-04-22T00:54:50.207Z,90.70
2017-04-22T00:55:49.904Z,90.80
2017-04-22T00:56:49.130Z,90.90
2017-04-22T00:57:48.717Z,91.20
2017-04-22T00:58:47.960Z,91.10
2017-04-22T00:59:48.340Z,91.20
2017-04-22T01:00:47.580Z,91.20
2017-04-22T01:01:46.796Z,91.40
2017-04-22T01:02:46.156Z,91.30
2017-04-22T01:03:46.451Z,91.30
2017-04-22T01:04:46.844Z,91.50
2017-04-22T01:05:46.419Z,91.50
2017-04-22T01:06:45.680Z,91.50
2017-04-22T01:07:44.907Z,91.50
2017-04-22T01:08:44.471Z,91.70
2017-04-22T01:09:43.728Z,91.70
2017-04-22T01:10:43.310Z,91.60
2017-04-22T01:11:42.533Z,91.70
2017-04-22T01:12:42.129Z,91.70
2017-04-22T01:13:41.924Z,91.70
2017-04-22T01:14:42.240Z,91.70
2017-04-22T01:15:42.599Z,91.70
2017-04-22T01:16:41.828Z,91.90
2017-04-22T01:17:41.280Z,91.90
2017-04-22T01:18:40.889Z,91.80
2017-04-22T01:19:40.111Z,92.00
2017-04-22T01:20:39.683Z,92.00
2017-04-22T01:21:38.921Z,92.00
2017-04-22T01:22:38.890Z,92.00
2017-04-22T01:23:38.143Z,92.00
2017-04-22T01:24:37.796Z,92.10
2017-04-22T01:25:37.373Z,92.10
2017-04-22T01:26:36.813Z,92.30
2017-04-22T01:27:36.033Z,92.20
2017-04-22T01:28:35.610Z,92.20
2017-04-22T01:29:35.526Z,92.30
2017-04-22T01:30:34.944Z,92.20
2017-04-22T01:31:34.170Z,92.20
2017-04-22T01:32:34.479Z,92.20
2017-04-22T01:33:36.328Z,92.30
2017-04-22T01:34:35.544Z,92.20
2017-04-22T01:35:34.799Z,92.40
2017-04-22T01:36:34.390Z,92.30
2017-04-22T01:37:33.622Z,92.40
2017-04-22T01:38:33.059Z,92.40
2017-04-22T01:39:32.615Z,92.50
2017-04-22T01:40:31.848Z,92.50
2017-04-22T01:41:31.111Z,92.50
2017-04-22T01:42:30.728Z,92.40
2017-04-22T01:43:29.987Z,92.50
2017-04-22T01:44:29.264Z,92.20
2017-04-22T01:45:28.525Z,92.10
2017-04-22T01:46:27.771Z,92.10
2017-04-22T01:47:27.601Z,92.20
2017-04-22T01:48:26.893Z,92.20
2017-04-22T01:49:26.157Z,92.00
2017-04-22T01:50:25.420Z,92.00
2017-04-22T01:51:25.025Z,92.00
2017-04-22T01:52:25.087Z,92.00
2017-04-22T01:53:24.360Z,92.10
2017-04-22T01:54:23.664Z,92.00
2017-04-22T01:55:22.944Z,91.90
2017-04-22T01:56:22.680Z,91.90
2017-04-22T01:57:22.720Z,91.90
2017-04-22T01:58:21.979Z,91.90
2017-04-22T01:59:21.237Z,92.00
2017-04-22T02:00:21.219Z,92.00
2017-04-22T02:01:21.859Z,92.00
2017-04-22T02:02:21.133Z,92.20
2017-04-22T02:03:20.621Z,92.20
2017-04-22T02:04:19.872Z,92.00
2017-04-22T02:05:19.875Z,92.00
2017-04-22T02:06:19.227Z,91.80
2017-04-22T02:07:18.696Z,91.90
2017-04-22T02:08:18.308Z,91.80
2017-04-22T02:09:17.563Z,91.80
2017-04-22T02:10:17.803Z,91.90
2017-04-22T02:11:17.099Z,91.90
2017-04-22T02:12:16.620Z,92.00
2017-04-22T02:13:16.118Z,92.00
2017-04-22T02:14:15.732Z,92.00
2017-04-22T02:15:15.356Z,92.10
2017-04-22T02:16:15.693Z,92.00
2017-04-22T02:17:15.304Z,92.10
2017-04-22T02:18:14.948Z,92.10
2017-04-22T02:19:15.356Z,92.20
2017-04-22T02:20:14.992Z,91.90
2017-04-22T02:21:14.247Z,92.10
2017-04-22T02:22:13.515Z,92.00
2017-04-22T02:23:12.771Z,92.00
2017-04-22T02:24:12.068Z,92.00
2017-04-22T02:25:12.055Z,92.00
2017-04-22T02:26:11.305Z,92.40
2017-04-22T02:27:10.920Z,92.20
2017-04-22T02:28:11.336Z,92.40
2017-04-22T02:29:11.431Z,92.20
2017-04-22T02:30:10.703Z,92.10
2017-04-22T02:31:09.957Z,92.10
2017-04-22T02:32:09.591Z,92.20
2017-04-22T02:33:08.883Z,92.60
2017-04-22T02:34:08.872Z,92.30
2017-04-22T02:35:08.112Z,92.20
2017-04-22T02:36:07.384Z,92.30
2017-04-22T02:37:07.340Z,92.40
2017-04-22T02:38:06.968Z,92.40
2017-04-22T02:39:06.977Z,92.40
2017-04-22T02:40:06.232Z,92.30
2017-04-22T02:41:05.843Z,92.40
2017-04-22T02:42:05.127Z,92.30
2017-04-22T02:43:04.804Z,92.30
2017-04-22T02:44:04.791Z,92.40
2017-04-22T02:45:04.066Z,92.40
2017-04-22T02:46:03.333Z,92.40
2017-04-22T02:47:02.583Z,92.30
2017-04-22T02:48:02.639Z,92.50
2017-04-22T02:49:01.888Z,92.50
2017-04-22T02:50:01.147Z,92.40
2017-04-22T02:51:00.400Z,92.40
2017-04-22T02:51:59.959Z,92.40
2017-04-22T02:52:59.205Z,92.40
2017-04-22T02:53:58.497Z,92.50
2017-04-22T02:55:57.712Z,92.40
2017-04-22T02:56:57.320Z,92.40
2017-04-22T02:57:57.317Z,92.40
2017-04-22T02:58:56.859Z,92.40
2017-04-22T02:59:56.147Z,92.30
2017-04-22T03:00:55.623Z,92.40
2017-04-22T03:01:54.865Z,92.30
2017-04-22T03:02:54.479Z,92.30
2017-04-22T03:03:53.719Z,92.30
2017-04-22T03:04:52.987Z,92.30
2017-04-22T03:05:52.263Z,92.40
2017-04-22T03:06:51.512Z,92.70
2017-04-22T03:07:50.762Z,92.30
2017-04-22T03:08:50.016Z,92.40
2017-04-22T03:09:49.269Z,92.40
2017-04-22T03:10:49.157Z,92.30
2017-04-22T03:11:48.438Z,92.40
2017-04-22T03:12:48.045Z,92.40
2017-04-22T03:13:47.656Z,92.40
2017-04-22T03:14:46.912Z,92.40
2017-04-22T03:15:46.939Z,92.40
2017-04-22T03:16:46.188Z,92.50
2017-04-22T03:17:45.501Z,92.50
2017-04-22T03:18:45.004Z,92.50
2017-04-22T03:19:45.332Z,92.60
2017-04-22T03:20:44.604Z,92.60
2017-04-22T03:21:43.859Z,92.60
2017-04-22T03:22:43.443Z,92.60
2017-04-22T03:23:43.047Z,92.60
2017-04-22T03:24:42.293Z,92.60
2017-04-22T03:25:41.893Z,92.70
2017-04-22T03:26:41.152Z,92.70
2017-04-22T03:27:40.781Z,92.80
2017-04-22T03:28:40.037Z,92.70
2017-04-22T03:29:40.068Z,92.90
2017-04-22T03:30:39.311Z,92.90
2017-04-22T03:31:38.904Z,92.90
2017-04-22T03:32:38.147Z,92.90
2017-04-22T03:33:37.423Z,93.00
2017-04-22T03:34:37.444Z,92.90
2017-04-22T03:35:37.456Z,93.00
2017-04-22T03:36:37.072Z,93.30
2017-04-22T03:37:36.772Z,93.00
2017-04-22T03:38:36.087Z,93.00
2017-04-22T03:39:35.335Z,93.00
2017-04-22T03:40:34.604Z,93.00
2017-04-22T03:41:34.220Z,93.10
2017-04-22T03:42:33.856Z,93.10
2017-04-22T03:43:33.923Z,93.10
2017-04-22T03:44:33.226Z,93.00
2017-04-22T03:45:32.479Z,93.00
2017-04-22T03:46:32.807Z,93.20
2017-04-22T03:47:32.853Z,93.00
2017-04-22T03:48:32.108Z,93.00
2017-04-22T03:49:32.095Z,92.90
2017-04-22T03:50:31.348Z,92.80
2017-04-22T03:51:30.599Z,92.80
2017-04-22T03:52:30.191Z,93.20
2017-04-22T03:53:30.191Z,92.80
2017-04-22T03:54:30.179Z,92.70
2017-04-22T03:55:29.429Z,92.60
2017-04-22T03:56:28.699Z,92.60
2017-04-22T03:57:27.947Z,92.60
2017-04-22T03:58:27.201Z,92.50
2017-04-22T03:59:26.471Z,92.40
2017-04-22T04:00:25.740Z,92.30
2017-04-22T04:01:25.344Z,92.40
2017-04-22T04:02:24.595Z,92.00
2017-04-22T04:03:23.880Z,92.00
2017-04-22T04:04:23.124Z,92.10
2017-04-22T04:05:22.919Z,92.00
2017-04-22T04:06:22.231Z,92.10
2017-04-22T04:07:21.492Z,92.00
2017-04-22T04:08:21.841Z,91.80
2017-04-22T04:09:21.104Z,92.10
2017-04-22T04:10:20.346Z,91.60
2017-04-22T04:11:19.635Z,91.50
2017-04-22T04:12:18.879Z,91.30
2017-04-22T04:13:18.138Z,90.50
2017-04-22T04:14:17.424Z,90.20
2017-04-22T04:15:16.691Z,90.00
2017-04-22T04:16:15.973Z,90.10
2017-04-22T04:17:15.589Z,90.10
2017-04-22T04:18:14.841Z,89.90
2017-04-22T04:19:14.096Z,90.10
2017-04-22T04:20:15.064Z,90.30
2017-04-22T04:21:14.331Z,90.20
2017-04-22T04:22:13.575Z,90.20
2017-04-22T04:23:13.203Z,90.10
2017-04-22T04:24:13.201Z,90.20
2017-04-22T04:25:13.548Z,90.50
2017-04-22T04:26:12.791Z,90.40
2017-04-22T04:28:11.628Z,90.50
2017-04-22T04:29:10.900Z,90.30
2017-04-22T04:30:10.904Z,90.40
2017-04-22T04:31:10.895Z,90.40
2017-04-22T04:32:10.475Z,90.20
2017-04-22T04:33:09.935Z,90.50
2017-04-22T04:34:09.191Z,90.40
2017-04-22T04:35:09.211Z,90.30
2017-04-22T04:36:09.196Z,90.20
2017-04-22T04:37:08.439Z,90.00
2017-04-22T04:38:07.751Z,89.90
2017-04-22T04:39:06.991Z,89.70
2017-04-22T04:40:06.248Z,90.10
2017-04-22T04:41:05.525Z,89.90
2017-04-22T04:42:05.097Z,89.60
2017-04-22T04:43:04.344Z,90.00
2017-04-22T04:44:04.720Z,90.00
2017-04-22T04:45:04.315Z,89.60
2017-04-22T04:46:03.564Z,89.60
2017-04-22T04:47:02.865Z,89.80
2017-04-22T04:48:02.116Z,89.90
2017-04-22T04:49:01.699Z,90.40
2017-04-22T04:50:00.931Z,90.10
2017-04-22T04:51:00.192Z,90.10
2017-04-22T04:51:59.800Z,90.30
2017-04-22T04:52:59.879Z,90.30
2017-04-22T04:53:59.123Z,89.70
2017-04-22T04:54:58.371Z,89.50
2017-04-22T04:55:57.616Z,89.20
2017-04-22T04:56:56.963Z,89.70
2017-04-22T04:57:56.947Z,90.10
2017-04-22T04:58:56.331Z,89.10
2017-04-22T04:59:55.564Z,87.70
2017-04-22T05:00:55.535Z,87.10
2017-04-22T05:01:54.769Z,86.40
2017-04-22T05:02:54.012Z,86.10
2017-04-22T05:03:53.349Z,85.50
2017-04-22T05:04:52.640Z,87.20
2017-04-22T05:05:52.235Z,86.90
2017-04-22T05:06:51.467Z,87.60
2017-04-22T05:07:50.716Z,87.60
2017-04-22T05:08:49.977Z,89.80
2017-04-22T05:09:49.212Z,88.60
2017-04-22T05:10:48.529Z,87.40
2017-04-22T05:11:47.776Z,87.50
2017-04-22T05:12:47.007Z,87.30
2017-04-22T05:13:46.262Z,87.90
2017-04-22T05:14:45.501Z,88.40
2017-04-22T05:15:45.504Z,88.70
2017-04-22T05:16:44.776Z,88.90
2017-04-22T05:17:44.252Z,88.50
2017-04-22T05:18:43.752Z,89.00
2017-04-22T05:19:42.996Z,88.30
2017-04-22T05:20:42.240Z,88.90
2017-04-22T05:21:41.492Z,90.10
2017-04-22T05:22:41.508Z,88.90
2017-04-22T05:23:40.761Z,88.70
2017-04-22T05:24:40.012Z,89.00
2017-04-22T05:25:39.252Z,88.40
2017-04-22T05:26:38.493Z,88.40
2017-04-22T05:27:38.028Z,87.70
2017-04-22T05:28:37.299Z,88.20
2017-04-22T05:29:36.552Z,87.80
2017-04-22T05:30:35.842Z,88.50
2017-04-22T05:31:35.093Z,88.80
2017-04-22T05:32:35.015Z,87.30
2017-04-22T05:33:35.012Z,87.40
2017-04-22T05:34:35.039Z,87.70
2017-04-22T05:35:34.524Z,87.10
2017-04-22T05:36:34.528Z,87.00
2017-04-22T05:37:33.810Z,85.40
2017-04-22T05:38:33.096Z,84.20
2017-04-22T05:39:33.115Z,84.10
2017-04-22T05:40:33.153Z,85.10
2017-04-22T05:41:32.648Z,84.60
2017-04-22T05:42:32.804Z,83.30
2017-04-22T05:43:32.097Z,82.90
2017-04-22T05:44:31.374Z,81.30
2017-04-22T05:45:30.647Z,80.30
2017-04-22T05:46:29.951Z,81.40
2017-04-22T05:47:29.811Z,81.30
2017-04-22T05:48:29.073Z,79.80
2017-04-22T05:49:28.315Z,76.60
2017-04-22T05:50:27.567Z,74.80
2017-04-22T05:51:27.866Z,72.50
2017-04-22T05:52:27.882Z,72.60
2017-04-22T05:53:27.907Z,70.10
2017-04-22T05:54:27.148Z,66.70
2017-04-22T05:55:26.395Z,65.40
2017-04-22T05:56:25.887Z,65.80
2017-04-22T05:57:25.141Z,63.60
2017-04-22T05:58:24.512Z,62.20
2017-04-22T05:59:24.839Z,63.00
2017-04-22T06:00:24.083Z,63.90
2017-04-22T06:01:23.339Z,59.80
2017-04-22T06:02:23.352Z,60.40
2017-04-22T06:03:23.336Z,62.30
2017-04-22T06:04:22.608Z,59.60
2017-04-22T06:05:22.195Z,59.90
2017-04-22T06:06:21.682Z,58.30
2017-04-22T06:07:20.951Z,57.80
2017-04-22T06:08:20.225Z,56.80
2017-04-22T06:09:19.507Z,56.20
2017-04-22T06:10:18.796Z,55.00
2017-04-22T06:11:18.053Z,54.40
2017-04-22T06:12:17.299Z,58.10
2017-04-22T06:13:16.548Z,59.40
2017-04-22T06:14:15.792Z,56.50
2017-04-22T06:15:15.043Z,58.30
2017-04-22T06:16:15.427Z,55.70
2017-04-22T06:17:15.407Z,55.40
2017-04-22T06:18:14.740Z,54.90
2017-04-22T06:19:13.977Z,55.80
2017-04-22T06:20:13.584Z,56.10
2017-04-22T06:21:13.080Z,56.40
2017-04-22T06:22:12.407Z,56.70
2017-04-22T06:23:11.642Z,54.90
2017-04-22T06:24:11.224Z,54.40
2017-04-22T06:25:11.216Z,56.10
2017-04-22T06:26:11.234Z,57.20
2017-04-22T06:27:11.567Z,58.10
2017-04-22T06:28:10.843Z,56.50
2017-04-22T06:29:11.295Z,56.80
2017-04-22T06:30:10.925Z,53.30
2017-04-22T06:31:10.196Z,51.90
2017-04-22T06:32:09.754Z,51.90
2017-04-22T06:33:09.020Z,55.50
2017-04-22T06:34:08.295Z,56.10
2017-04-22T06:35:07.529Z,57.60
2017-04-22T06:36:07.148Z,55.60
2017-04-22T06:37:07.097Z,55.00
2017-04-22T06:38:06.323Z,56.50
2017-04-22T06:39:06.395Z,54.50
2017-04-22T06:40:05.676Z,52.40
2017-04-22T06:41:05.279Z,51.80
2017-04-22T06:42:04.536Z,55.30
2017-04-22T06:43:03.797Z,53.20
2017-04-22T06:44:03.302Z,51.70
2017-04-22T06:45:02.503Z,53.80
2017-04-22T06:46:01.780Z,56.40
2017-04-22T06:47:01.324Z,55.70
2017-04-22T06:48:00.611Z,54.60
2017-04-22T06:48:59.843Z,52.50
2017-04-22T06:49:59.500Z,52.10
2017-04-22T06:50:58.940Z,50.80
2017-04-22T06:51:58.184Z,47.70
2017-04-22T06:52:58.132Z,49.40
2017-04-22T06:53:58.123Z,47.60
2017-04-22T06:54:58.075Z,48.90
2017-04-22T06:55:57.283Z,51.50
2017-04-22T06:56:57.246Z,52.80
2017-04-22T06:57:56.591Z,53.60
2017-04-22T06:58:56.145Z,52.00
2017-04-22T06:59:55.787Z,50.00
2017-04-22T07:00:54.991Z,48.80
2017-04-22T07:01:54.195Z,48.10
2017-04-22T07:02:54.508Z,50.60
2017-04-22T07:03:54.496Z,49.10
2017-04-22T07:04:54.043Z,48.50
2017-04-22T07:05:53.264Z,49.10
2017-04-22T07:06:52.462Z,48.00
2017-04-22T07:07:52.015Z,49.80
2017-04-22T07:08:51.230Z,49.60
2017-04-22T07:09:50.473Z,49.00
2017-04-22T07:10:50.772Z,49.00
2017-04-22T07:11:51.035Z,48.80
2017-04-22T07:12:50.599Z,47.70
2017-04-22T07:13:50.847Z,47.00
2017-04-22T07:14:50.383Z,46.60
2017-04-22T07:15:49.932Z,45.50
2017-04-22T07:16:50.837Z,44.20
2017-04-22T07:17:50.056Z,41.60
2017-04-22T07:18:49.304Z,43.80
2017-04-22T07:19:50.025Z,47.80
2017-04-22T07:20:49.992Z,47.60
2017-04-22T07:21:49.943Z,47.70
2017-04-22T07:22:49.887Z,48.90
2017-04-22T07:23:49.092Z,49.70
2017-04-22T07:24:48.295Z,51.00
2017-04-22T07:25:47.883Z,53.30
2017-04-22T07:26:47.472Z,54.50
2017-04-22T07:27:47.040Z,55.20
2017-04-22T07:28:46.588Z,55.00
2017-04-22T07:29:45.888Z,55.70
2017-04-22T07:30:46.175Z,53.70
2017-04-22T07:31:45.444Z,51.40
2017-04-22T07:32:45.307Z,51.30
2017-04-22T07:33:45.255Z,50.40
2017-04-22T07:34:44.463Z,51.40
2017-04-22T07:35:43.683Z,51.90
2017-04-22T07:36:42.911Z,53.90
2017-04-22T07:37:42.551Z,53.20
2017-04-22T07:38:41.760Z,56.00
2017-04-22T07:39:41.312Z,55.60
2017-04-22T07:40:40.855Z,56.60
2017-04-22T07:41:40.363Z,55.30
2017-04-22T07:42:40.333Z,52.90
2017-04-22T07:43:39.644Z,51.80
2017-04-22T07:44:38.876Z,52.40
2017-04-22T07:45:38.374Z,53.10
2017-04-22T07:46:37.592Z,52.80
2017-04-22T07:47:36.783Z,54.10
2017-04-22T07:48:36.967Z,55.70
2017-04-22T07:49:36.197Z,55.40
2017-04-22T07:50:35.739Z,54.70
2017-04-22T07:51:34.940Z,54.80
2017-04-22T07:52:34.159Z,53.60
2017-04-22T07:53:33.407Z,53.50
2017-04-22T07:54:32.950Z,53.80
2017-04-22T07:55:32.183Z,55.30
2017-04-22T07:56:31.436Z,55.00
2017-04-22T07:57:30.630Z,53.60
2017-04-22T07:58:29.862Z,52.50
2017-04-22T07:59:29.407Z,52.90
2017-04-22T08:00:28.607Z,51.80
2017-04-22T08:01:28.576Z,50.60
2017-04-22T08:02:27.808Z,51.90
2017-04-22T08:03:28.100Z,50.70
2017-04-22T08:04:27.643Z,52.30
2017-04-22T08:05:26.851Z,51.20
2017-04-22T08:06:26.727Z,50.00
2017-04-22T08:07:25.950Z,50.70
2017-04-22T08:08:25.152Z,52.50
2017-04-22T08:09:25.039Z,53.50
2017-04-22T08:10:24.612Z,54.60
2017-04-22T08:11:23.835Z,53.20
2017-04-22T08:12:23.390Z,50.30
2017-04-22T08:13:23.371Z,49.30
2017-04-22T08:14:22.571Z,48.10
2017-04-22T08:15:22.575Z,46.60
2017-04-22T08:16:22.550Z,46.50
2017-04-22T08:17:22.096Z,48.60
2017-04-22T08:18:22.411Z,49.50
2017-04-22T08:19:21.648Z,51.60
2017-04-22T08:20:21.196Z,51.20
2017-04-22T08:21:20.398Z,53.40
2017-04-22T08:22:19.615Z,53.70
2017-04-22T08:23:19.212Z,53.60
2017-04-22T08:24:18.420Z,52.70
2017-04-22T08:25:17.655Z,51.10
2017-04-22T08:26:17.195Z,52.50
2017-04-22T08:27:16.792Z,53.10
2017-04-22T08:28:15.997Z,53.40
2017-04-22T08:29:15.211Z,52.80
2017-04-22T08:30:15.512Z,53.00
2017-04-22T08:31:14.744Z,52.70
2017-04-22T08:32:13.955Z,54.00
2017-04-22T08:33:13.146Z,53.30
2017-04-22T08:34:13.082Z,53.10
2017-04-22T08:35:12.288Z,53.30
2017-04-22T08:36:11.828Z,54.70
2017-04-22T08:37:11.307Z,55.40
2017-04-22T08:38:11.187Z,56.00
2017-04-22T08:39:10.731Z,55.50
2017-04-22T08:40:10.271Z,55.10
2017-04-22T08:41:09.480Z,54.90
2017-04-22T08:42:08.686Z,55.10
2017-04-22T08:43:08.612Z,55.80
2017-04-22T08:44:07.896Z,55.80
2017-04-22T08:45:07.095Z,54.10
2017-04-22T08:46:06.643Z,51.70
2017-04-22T08:47:06.191Z,51.00
2017-04-22T08:48:05.963Z,49.40
2017-04-22T08:49:05.194Z,50.60
2017-04-22T08:50:05.088Z,49.00
2017-04-22T08:51:04.299Z,50.10
2017-04-22T08:52:04.692Z,51.60
2017-04-22T08:53:03.955Z,52.30
2017-04-22T08:54:03.226Z,52.70
2017-04-22T08:55:02.564Z,52.90
2017-04-22T08:56:01.852Z,53.70
2017-04-22T08:57:01.122Z,53.80
2017-04-22T08:58:00.396Z,53.80
2017-04-22T08:58:59.683Z,54.60
2017-04-22T08:59:59.289Z,56.00
2017-04-22T09:00:58.584Z,55.50
2017-04-22T09:01:57.887Z,57.00
2017-04-22T09:02:57.189Z,57.20
2017-04-22T09:03:56.488Z,57.90
2017-04-22T09:04:55.871Z,57.90
2017-04-22T09:05:55.418Z,58.20
2017-04-22T09:06:55.235Z,58.30
2017-04-22T09:07:54.431Z,58.10
2017-04-22T09:08:54.003Z,58.50
2017-04-22T09:09:53.969Z,57.70
2017-04-22T09:11:53.113Z,57.10
2017-04-22T09:12:52.359Z,57.20
2017-04-22T09:13:51.563Z,57.10
2017-04-22T09:14:50.768Z,57.20
2017-04-22T09:15:51.051Z,56.80
2017-04-22T09:16:50.252Z,56.80
2017-04-22T09:17:49.804Z,57.70
2017-04-22T09:18:49.382Z,58.50
2017-04-22T09:19:48.588Z,61.00
2017-04-22T09:20:48.157Z,65.90
2017-04-22T09:21:47.595Z,68.60
2017-04-22T09:22:46.796Z,70.40
2017-04-22T09:23:46.001Z,69.90
2017-04-22T09:24:45.240Z,69.30
2017-04-22T09:25:44.800Z,69.10
2017-04-22T09:26:44.013Z,73.10
2017-04-22T09:27:43.211Z,67.80
2017-04-22T09:28:42.416Z,62.80
2017-04-22T09:29:41.623Z,62.70
2017-04-22T09:30:40.850Z,60.50
2017-04-22T09:31:40.372Z,58.50
2017-04-22T09:32:39.575Z,57.50
2017-04-22T09:33:38.803Z,57.80
2017-04-22T09:34:38.011Z,57.60
2017-04-22T09:35:37.231Z,57.30
2017-04-22T09:36:36.842Z,54.90
2017-04-22T09:37:36.300Z,55.50
2017-04-22T09:38:35.503Z,55.10
2017-04-22T09:39:35.052Z,55.30
2017-04-22T09:40:34.270Z,52.90
2017-04-22T09:41:34.559Z,53.80
2017-04-22T09:42:34.176Z,51.50
2017-04-22T09:43:34.092Z,50.00
2017-04-22T09:44:33.307Z,50.00
2017-04-22T09:45:32.512Z,48.30
2017-04-22T09:46:32.069Z,48.00
2017-04-22T09:47:31.269Z,46.90
2017-04-22T09:48:31.169Z,47.20
2017-04-22T09:49:30.736Z,42.90
2017-04-22T09:50:30.695Z,46.00
2017-04-22T09:51:29.895Z,47.40
2017-04-22T09:52:30.100Z,46.20
2017-04-22T09:53:29.294Z,45.10
2017-04-22T09:54:29.171Z,44.90
2017-04-22T09:55:28.403Z,43.40
2017-04-22T09:56:27.953Z,42.50
2017-04-22T09:57:27.160Z,44.70
2017-04-22T09:58:26.372Z,44.70
2017-04-22T09:59:25.580Z,44.10
2017-04-22T10:00:26.143Z,43.10
2017-04-22T10:01:25.356Z,44.00
2017-04-22T10:02:24.575Z,44.30
2017-04-22T10:03:23.796Z,43.60
2017-04-22T10:04:23.012Z,43.60
2017-04-22T10:05:22.564Z,44.80
2017-04-22T10:06:22.148Z,46.50
2017-04-22T10:07:21.347Z,46.20
2017-04-22T10:08:20.579Z,45.90
2017-04-22T10:09:19.797Z,46.30
2017-04-22T10:11:18.914Z,46.40
2017-04-22T10:12:19.235Z,47.50
2017-04-22T10:13:19.196Z,48.50
2017-04-22T10:14:18.391Z,50.50
2017-04-22T10:15:18.680Z,54.30
2017-04-22T10:16:18.236Z,57.10
2017-04-22T10:17:17.440Z,61.00
2017-04-22T10:18:16.695Z,66.10
2017-04-22T10:19:15.917Z,71.60
2017-04-22T10:20:15.122Z,73.50
2017-04-22T10:21:15.029Z,76.10
2017-04-22T10:22:15.712Z,76.90
2017-04-22T10:23:15.261Z,78.80
2017-04-22T10:24:14.853Z,77.60
2017-04-22T10:25:14.450Z,76.20
2017-04-22T10:26:13.662Z,76.30
2017-04-22T10:27:13.212Z,76.60
2017-04-22T10:28:13.147Z,76.70
2017-04-22T10:29:12.370Z,77.90
2017-04-22T10:30:12.296Z,75.70
2017-04-22T10:31:11.523Z,76.20
2017-04-22T10:32:11.318Z,73.50
2017-04-22T10:33:10.515Z,75.00
2017-04-22T10:34:10.120Z,74.70
2017-04-22T10:35:09.671Z,72.10
2017-04-22T10:36:09.946Z,71.50
2017-04-22T10:37:09.157Z,69.20
2017-04-22T10:38:09.118Z,67.10
2017-04-22T10:39:08.328Z,68.90
2017-04-22T10:40:08.272Z,65.10
2017-04-22T10:41:08.917Z,66.60
2017-04-22T10:42:08.156Z,67.30
2017-04-22T10:43:07.702Z,65.80
2017-04-22T10:44:07.357Z,63.10
2017-04-22T10:45:06.908Z,64.50
2017-04-22T10:46:06.450Z,64.70
2017-04-22T10:47:05.656Z,67.80
2017-04-22T10:48:04.901Z,65.50
2017-04-22T10:49:04.456Z,67.50
2017-04-22T10:50:04.763Z,66.30
2017-04-22T10:51:04.721Z,67.30
2017-04-22T10:52:04.275Z,69.90
2017-04-22T10:53:04.583Z,64.20
2017-04-22T10:54:04.853Z,64.40
2017-04-22T10:55:04.427Z,68.60
2017-04-22T10:56:03.654Z,65.40
2017-04-22T10:57:02.856Z,65.60
2017-04-22T10:58:02.055Z,62.80
2017-04-22T10:59:02.003Z,59.90
2017-04-22T11:00:01.255Z,57.00
2017-04-22T11:01:01.207Z,57.30
2017-04-22T11:02:00.407Z,56.30
2017-04-22T11:02:59.631Z,57.90
2017-04-22T11:03:58.836Z,59.20
2017-04-22T11:04:58.792Z,58.30
2017-04-22T11:05:59.119Z,56.70
2017-04-22T11:06:58.344Z,57.00
2017-04-22T11:07:58.508Z,55.10
2017-04-22T11:08:57.724Z,53.60
2017-04-22T11:09:57.713Z,52.30
2017-04-22T11:10:57.255Z,50.70
2017-04-22T11:11:57.525Z,47.40
2017-04-22T11:12:56.737Z,48.80
2017-04-22T11:13:57.033Z,45.10
2017-04-22T11:14:56.239Z,44.40
2017-04-22T11:15:55.788Z,47.50
2017-04-22T11:16:55.287Z,48.00
2017-04-22T11:17:54.522Z,46.90
2017-04-22T11:18:54.103Z,47.20
2017-04-22T11:19:53.309Z,45.20
2017-04-22T11:20:53.535Z,45.90
2017-04-22T11:21:53.377Z,42.90
2017-04-22T11:22:52.859Z,43.70
2017-04-22T11:23:52.091Z,46.00
2017-04-22T11:24:51.652Z,46.60
2017-04-22T11:25:50.860Z,46.20
2017-04-22T11:26:50.058Z,47.90
2017-04-22T11:27:49.273Z,48.20
2017-04-22T11:28:49.556Z,49.10
2017-04-22T11:29:48.791Z,46.80
2017-04-22T11:30:47.992Z,46.30
2017-04-22T11:31:47.192Z,49.10
2017-04-22T11:32:46.395Z,49.20
2017-04-22T11:33:45.952Z,51.00
2017-04-22T11:34:45.187Z,53.00
2017-04-22T11:35:44.772Z,55.50
2017-04-22T11:36:44.323Z,55.70
2017-04-22T11:37:44.274Z,57.00
2017-04-22T11:38:44.060Z,58.60
2017-04-22T11:39:43.615Z,57.70
2017-04-22T11:40:42.835Z,57.80
2017-04-22T11:41:42.344Z,56.30
2017-04-22T11:42:41.908Z,55.70
2017-04-22T11:43:41.850Z,57.40
2017-04-22T11:44:41.111Z,57.30
2017-04-22T11:45:41.100Z,56.80
2017-04-22T11:46:40.359Z,56.20
2017-04-22T11:47:39.601Z,57.20
2017-04-22T11:48:39.132Z,57.80
2017-04-22T11:49:38.360Z,57.00
2017-04-22T11:50:37.603Z,52.80
2017-04-22T11:51:37.219Z,54.90
2017-04-22T11:52:36.469Z,53.10
2017-04-22T11:53:35.715Z,53.50
2017-04-22T11:54:34.953Z,53.80
2017-04-22T11:55:34.187Z,52.80
2017-04-22T11:56:33.448Z,52.90
2017-04-22T11:57:32.755Z,54.50
2017-04-22T11:58:31.983Z,55.30
2017-04-22T11:59:31.997Z,54.40
2017-04-22T12:00:32.073Z,55.40
2017-04-22T12:02:31.255Z,57.20
2017-04-22T12:03:30.831Z,57.00
2017-04-22T12:04:30.072Z,57.10
2017-04-22T12:05:29.316Z,57.30
2017-04-22T12:06:28.560Z,57.70
2017-04-22T12:07:28.543Z,59.20
2017-04-22T12:08:27.812Z,57.20
2017-04-22T12:09:27.893Z,56.80
2017-04-22T12:10:27.138Z,56.20
2017-04-22T12:11:26.725Z,56.30
2017-04-22T12:12:26.038Z,55.70
2017-04-22T12:13:25.708Z,55.50
2017-04-22T12:14:25.596Z,53.50
2017-04-22T12:15:24.858Z,55.50
2017-04-22T12:16:24.131Z,55.00
2017-04-22T12:17:24.173Z,53.20
2017-04-22T12:18:23.420Z,53.80
2017-04-22T12:19:22.669Z,54.70
2017-04-22T12:20:22.289Z,52.40
2017-04-22T12:21:21.853Z,50.70
2017-04-22T12:22:21.093Z,49.50
2017-04-22T12:23:20.649Z,48.20
2017-04-22T12:24:20.244Z,48.00
2017-04-22T12:25:19.623Z,46.70
2017-04-22T12:26:18.904Z,44.60
2017-04-22T12:27:18.208Z,42.40
2017-04-22T12:28:17.456Z,41.10
2017-04-22T12:29:17.443Z,40.50
2017-04-22T12:30:16.692Z,40.90
2017-04-22T12:31:15.940Z,41.50
2017-04-22T12:32:15.523Z,41.00
2017-04-22T12:33:14.796Z,40.20
2017-04-22T12:34:14.034Z,39.50
2017-04-22T12:35:13.675Z,37.80
2017-04-22T12:36:12.964Z,38.30
2017-04-22T12:37:12.237Z,37.50
2017-04-22T12:38:11.488Z,37.70
2017-04-22T12:39:10.761Z,37.80
2017-04-22T12:40:10.355Z,39.40
2017-04-22T12:41:09.636Z,38.30
2017-04-22T12:42:08.891Z,37.30
2017-04-22T12:43:08.139Z,36.80
2017-04-22T12:44:07.501Z,38.20
2017-04-22T12:45:07.528Z,39.40
2017-04-22T12:46:06.784Z,40.40
2017-04-22T12:47:06.028Z,41.20
2017-04-22T12:48:06.280Z,42.30
2017-04-22T12:49:05.539Z,42.40
2017-04-22T12:50:06.100Z,42.10
2017-04-22T12:51:05.392Z,42.50